Tiempo atmosférico en la estación meteorológica de Elgoibar, Gipuzkoa (120 m.)



Fecha
DESCASC
Temp. máxima en grados centígrados (hora)
DESCASC
Temp. mínima en grados centígrados (hora)
DESCASC
Temp. media en grados centígrados
DESCASC
Racha de viento máxima en m/sg (hora)
DESCASC
Velocidad máxima media en intervalos de 10 minutos(hora)
DESCASC
Precipitaciones diarias en mm
DESCASC
Precipitaciones de 00:00 a 06:00 en mm
DESCASC
Precipitaciones de 06:00 a 12:00 en mm
DESCASC
Precipitaciones de 12:00 a 18:00 en mm
DESCASC
Precipitaciones de 18:00 a 24:00 en mm
DESCASC
15-08-2019 21.6 (13:30) 13.8 (23:59) 17.7 5.83 (17:20) 2.78 (17:00) 1.3 0.8 0.5 0 0
14-08-2019 26.4 (14:30) 10.3 (00:00) 18.3 7.5 (14:30) 3.33 (16:00) 0 0 0 0 0
13-08-2019 21 (14:10) 11.9 (00:00) 16.4 6.11 (15:20) 3.33 (17:00) 0 0 0 0 0
12-08-2019 20.7 (17:20) 12.7 (00:00) 16.7 8.33 (17:10) 3.33 (11:30) 1.3 0 0.7 0.6 0
11-08-2019 19.6 (15:40) 15.5 (00:00) 17.6 5.83 (17:00) 2.78 (16:00) 16.4 3 10.5 0.2 2.7
10-08-2019 22.2 (14:00) 16.5 (00:00) 19.4 6.39 (16:50) 3.33 (16:50) 0.5 0 0.4 0.1 0
09-08-2019 30.4 (11:00) 17.9 (00:00) 24.1 13.06 (10:30) 5.28 (11:40) 0 0 0 0 0
08-08-2019 33.1 (16:40) 18.9 (00:00) 26 13.33 (10:00) 4.17 (09:30) 0 0 0 0 0
07-08-2019 25.3 (14:20) 17.3 (00:00) 21.3 6.94 (18:10) 3.61 (15:50) 11.8 11.8 0 0 0
06-08-2019 25.9 (14:00) 15.9 (00:00) 20.9 5.83 (17:20) 3.33 (15:00) 0.1 0 0 0 0.1
05-08-2019 22.6 (18:40) 15.7 (00:00) 19.2 4.72 (19:20) 2.5 (17:10) 0 0 0 0 0
04-08-2019 22 (14:10) 15.7 (00:00) 18.8 5.56 (15:10) 2.5 (14:30) 0 0 0 0 0
03-08-2019 26.1 (14:20) 14.3 (00:00) 20.2 7.5 (17:10) 3.89 (17:20) 0 0 0 0 0
02-08-2019 23.3 (16:00) 16.1 (00:00) 19.7 6.11 (17:20) 3.89 (17:20) 0.1 0.1 0 0 0
01-08-2019 24.5 (14:20) 16.2 (00:00) 20.4 12.22 (05:20) 5 (05:20) 13.1 7.2 5.8 0 0.1
31-07-2019 20.8 (15:20) 11 (00:00) 15.9 7.22 (13:10) 3.89 (12:20) 0 0 0 0 0
30-07-2019 22 (16:50) 14.5 (00:00) 18.3 8.33 (10:20) 3.33 (18:00) 0 0 0 0 0
29-07-2019 25.8 (12:20) 12.4 (00:00) 19.1 7.78 (16:00) 3.89 (14:20) 0 0 0 0 0
28-07-2019 22.1 (16:10) 13.9 (00:00) 18 6.39 (16:40) 3.61 (18:50) 1.6 1.1 0.4 0.1 0
27-07-2019 18.2 (16:50) 14.6 (00:00) 16.4 7.5 (19:10) 2.22 (19:10) 14.8 1.9 10.3 0.7 1.9
26-07-2019 20.5 (00:10) 16.2 (00:00) 18.4 6.67 (08:20) 3.06 (08:20) 9.9 4.7 3.6 0.1 1.5
25-07-2019 26.8 (15:10) 18.8 (00:00) 22.8 8.06 (15:20) 4.72 (13:30) 5.5 0 0 0 5.5
24-07-2019 30.3 (14:30) 18.1 (00:00) 24.2 7.22 (01:00) 4.17 (16:50) 0.1 0 0.1 0 0
23-07-2019 39.8 (17:10) 19.3 (00:00) 29.5 16.67 (19:30) 6.94 (19:30) 0.9 0 0 0 0.9
22-07-2019 28.9 (13:50) 17.5 (00:00) 23.2 7.22 (16:10) 4.17 (16:30) 0 0 0 0 0
21-07-2019 23.5 (17:00) 18.6 (00:00) 21.1 6.11 (17:10) 3.61 (13:00) 0 0 0 0 0
20-07-2019 23.8 (12:50) 17.6 (00:00) 20.7 6.11 (14:50) 3.33 (15:20) 0 0 0 0 0
19-07-2019 25.8 (17:20) 12.1 (00:00) 18.9 7.78 (15:40) 3.89 (15:00) 0 0 0 0 0
18-07-2019 22.9 (13:10) 15 (00:00) 18.9 6.39 (16:10) 3.89 (16:10) 0 0 0 0 0

Gráficas

Temp. máximas Temp. mínimas Temp. medias Precipitaciones Rachas de viento máximas Velocidades máximas media en intervalos de 10 minutos

Datos horarios

Fecha y hora oficial Temperatura (ºC) Velocidad del viento (km/h) Dirección del viento Racha (km/h) Dirección de racha Precipitación (mm) Presión (hPa) Tendencia (hPa) Humedad (%)
2019-08-16 23:00:00 17.2 0 Calma -- -- 0 1003.7 1.8 77
2019-08-16 22:00:00 18.4 0 Calma 6 Este 0 1003.4 1.8 71
2019-08-16 21:00:00 20.6 3 Nordeste 14 Noroeste 0 1002.6 1 59
2019-08-16 20:00:00 23 9 Norte 17 Norte 0 1001.9 0.1 51
2019-08-16 19:00:00 24.4 7 Norte 14 Norte 0 1001.6 -0.4 52
2019-08-16 18:00:00 24.6 11 Norte 20 Norte 0 1001.6 -0.6 54
2019-08-16 17:00:00 24.7 10 Norte 21 Norte 0 1001.8 -0.5 55
2019-08-16 16:00:00 24 14 Norte 23 Norte 0 1002 -1.2 57
2019-08-16 15:00:00 23.4 14 Norte 25 Norte 0 1002.2 -1.4 57
2019-08-16 14:00:00 25.7 6 Norte 13 Norte 0 1002.3 -2.1 48
2019-08-16 13:00:00 24.6 0 Calma 9 Sudeste 0 1003.2 -2.2 53
2019-08-16 12:00:00 21.3 0 Calma 7 Sudoeste 0 1003.6 -2.5 65
2019-08-16 11:00:00 18 0 Calma 8 Este 0 1004.4 -1.7 84
2019-08-16 10:00:00 14.1 0 Calma 9 Sudoeste 0 1005.4 -0.5 96
2019-08-16 09:00:00 12.2 0 Calma -- -- 0 1006.1 0 96
2019-08-16 08:00:00 11.4 0 Calma 6 Sudoeste 0 1006.1 -0.5 95
2019-08-16 07:00:00 11.1 2 Sur 10 Sur 0 1005.9 -0.8 95
2019-08-16 06:00:00 11.2 0 Calma 12 Sudoeste 0 1006.1 -1.4 95
2019-08-16 05:00:00 11.2 0 Calma 5 Oeste 0 1006.6 -1.4 94
2019-08-16 04:00:00 11.7 0 Calma 7 Sudoeste 0 1006.7 -1.4 93
2019-08-16 03:00:00 12.1 0 Calma 7 Sur 0 1007.5 -1.6 93
2019-08-16 02:00:00 12.8 0 Calma 4 Sudoeste 0 1008 -1.3 92
2019-08-16 01:00:00 13.2 0 Calma 5 Sudoeste 0 1008.1 -0.7 90
2019-08-16 00:00:00 13.8 0 Calma -- -- 0 1009.1 0.9 88
2019-08-15 23:00:00 14.8 0 Calma 5 Este 0 1009.3 0.8 84
2019-08-15 22:00:00 15.8 0 Calma 6 Este 0 1008.8 0 78
2019-08-15 21:00:00 18 0 Calma -- -- -- 1008.2 -0.7 70
2019-08-15 20:00:00 19.2 5 Noroeste 15 Norte 0 1008.5 -0.4 64
2019-08-15 19:00:00 20.3 7 Norte 18 Norte 0 1008.8 -0.3 62
2019-08-15 18:00:00 20.5 9 Norte 21 Noroeste 0 1008.9 -0.2 62
2019-08-15 17:00:00 20.6 10 Norte 20 Norte 0 1008.9 -0.2 62
2019-08-15 16:00:00 20.7 9 Nordeste 20 Nordeste 0 1009.1 -0.2 64
2019-08-15 15:00:00 19.7 10 Norte 19 Norte 0 1009.1 -0.4 69
2019-08-15 14:00:00 19.8 6 Nordeste 19 Norte 0 1009.1 -0.3 72
2019-08-15 13:00:00 19.6 5 Este 12 Este 0 1009.3 0.1 80
2019-08-15 12:00:00 18.3 5 Nordeste 11 Norte 0 1009.5 0.6 86
2019-08-15 11:00:00 17.8 5 Este 9 Este 0.1 1009.4 0.8 92
2019-08-15 10:00:00 17.5 0 Calma 5 Nordeste 0.3 1009.2 1.4 94
2019-08-15 09:00:00 17.5 0 Calma -- -- 0 1008.9 1.9 94
2019-08-15 08:00:00 17.3 0 Calma 8 Norte 0.1 1008.6 1.9 94
2019-08-15 07:00:00 17.5 0 Calma 19 Norte 0 1007.8 1.1 94
2019-08-15 06:00:00 18.2 0 Calma 7 Noroeste 0.4 1007 0 94
2019-08-15 05:00:00 18.4 0 Calma -- -- 0.3 1006.7 -0.1 93
2019-08-15 04:00:00 18.5 0 Calma 0 Calma 0.1 1006.7 -0.4 92
2019-08-15 03:00:00 18.8 0 Calma -- -- 0 1007 -0.2 91
2019-08-15 02:00:00 19.1 0 Calma 7 Sudoeste 0 1006.8 -0.5 89
2019-08-15 01:00:00 19.4 0 Calma 10 Sur 0 1007.1 0.1 85
2019-08-15 00:00:00 19.7 0 Calma 11 Sudoeste 0 1007.2 0.8 83
2019-08-14 23:00:00 20.5 3 Sudoeste 10 Sudoeste 0 1007.3 1.4 77
2019-08-14 22:00:00 20.8 3 Sudoeste 14 Sudoeste 0 1007 1.4 74
2019-08-14 21:00:00 21 3 Norte 9 Noroeste 0 1006.4 0.7 69
2019-08-14 20:00:00 21.3 2 Norte 13 Norte 0 1005.9 0.4 68
2019-08-14 19:00:00 22.2 5 Norte 15 Norte 0 1005.6 0.2 61
2019-08-14 18:00:00 23 9 Norte 18 Nordeste 0 1005.7 0.4 52
2019-08-14 17:00:00 23.7 10 Norte 21 Norte 0 1005.5 0.1 50
2019-08-14 16:00:00 24.2 12 Norte 22 Noroeste 0 1005.4 -0.4 49
2019-08-14 15:00:00 25.6 8 Noroeste 27 Noroeste 0 1005.3 -0.7 45
2019-08-14 14:00:00 25.8 3 Nordeste 12 Nordeste 0 1005.4 -0.9 44
2019-08-14 13:00:00 24.8 0 Calma -- -- 0 1005.8 -0.8 49
2019-08-14 12:00:00 22.3 0 Calma -- -- 0 1006 -0.6 55
2019-08-14 11:00:00 19.1 0 Calma -- -- 0 1006.3 -0.1 65
2019-08-14 10:00:00 15.6 0 Calma -- -- 0 1006.6 0.3 82
2019-08-14 09:00:00 12.7 0 Calma -- -- 0 1006.6 0 94
2019-08-14 08:00:00 10.6 0 Calma -- -- 0 1006.4 -0.4 94
2019-08-14 07:00:00 10.6 0 Calma 13 Sudoeste 0 1006.3 -0.7 94
2019-08-14 06:00:00 10.4 0 Calma -- -- 0 1006.6 -1.1 93
2019-08-14 05:00:00 10.6 0 Calma -- -- 0 1006.8 -1.4 93
2019-08-14 04:00:00 11.1 0 Calma 6 Sudoeste 0 1007 -1.2 92
2019-08-14 03:00:00 11.6 0 Calma -- -- 0 1007.7 -0.8 92
2019-08-14 02:00:00 12.2 0 Calma -- -- 0 1008.2 -0.6 91
2019-08-14 01:00:00 12.5 0 Calma -- -- 0 1008.2 -0.1 89
2019-08-14 00:00:00 13.2 0 Calma -- -- 0 1008.5 0.5 87
2019-08-13 23:00:00 14 0 Calma -- -- 0 1008.8 1.1 83
2019-08-13 22:00:00 15.4 0 Calma -- -- 0 1008.3 0.3 75
2019-08-13 21:00:00 17.4 0 Calma 15 Noroeste 0 1008 -0.1 66
2019-08-13 20:00:00 18.6 5 Noroeste 15 Noroeste 0 1007.7 -0.6 61
2019-08-13 19:00:00 19.1 9 Norte 19 Norte 0 1008 -0.4 59
2019-08-13 18:00:00 19.5 10 Norte 21 Norte 0 1008.1 -0.4 57
2019-08-13 17:00:00 19.8 12 Norte 21 Norte 0 1008.3 -0.4 54
2019-08-13 16:00:00 20.3 11 Nordeste 22 Nordeste 0 1008.4 -0.7 50
2019-08-13 15:00:00 20.3 11 Norte 19 Noroeste 0 1008.5 -1 50
2019-08-13 14:00:00 20.5 8 Norte 21 Nordeste 0 1008.7 -1.1 54
2019-08-13 13:00:00 19.9 5 Norte 17 Norte 0 1009.1 -0.6 60
2019-08-13 12:00:00 17.6 0 Calma 8 Nordeste 0 1009.5 -0.2 80
2019-08-13 11:00:00 15.4 0 Calma -- -- 0 1009.8 0.2 93
2019-08-13 10:00:00 13.7 0 Calma 8 Sudoeste 0 1009.7 0.7 94
2019-08-13 09:00:00 12.8 0 Calma 6 Sur 0 1009.7 0.5 94
2019-08-13 08:00:00 11.9 0 Calma 6 Sur 0 1009.6 0.3 93
2019-08-13 07:00:00 12.3 0 Calma 8 Sudoeste 0 1009 -0.7 93
2019-08-13 06:00:00 12.6 0 Calma 10 Sudoeste 0 1009.2 -1 93
2019-08-13 05:00:00 12.6 0 Calma 8 Sudoeste 0 1009.3 -1.5 92
2019-08-13 04:00:00 12.6 0 Calma 10 Sur 0 1009.7 -1.3 92
2019-08-13 03:00:00 12.9 0 Calma 6 Sudoeste 0 1010.2 -0.8 92
2019-08-13 02:00:00 13.3 0 Calma -- -- 0 1010.8 -0.4 90
2019-08-13 01:00:00 13.5 0 Calma 6 Sudoeste 0 1011 0.5 89
2019-08-13 00:00:00 13.7 0 Calma 5 Sudoeste 0 1011 1.2 86
2019-08-12 23:00:00 14.2 0 Calma -- -- 0 1011.2 1.6 83
2019-08-12 22:00:00 15 0 Calma 5 Sudoeste 0 1010.5 1.3 78
2019-08-12 21:00:00 17 2 Sudoeste 9 Sudoeste 0 1009.8 0.4 72
2019-08-12 20:00:00 17.9 4 Oeste 13 Oeste 0 1009.6 0.6 65
2019-08-12 19:00:00 18.4 4 Noroeste 10 Noroeste 0 1009.2 0.2 72
2019-08-12 18:00:00 17.4 3 Sudoeste 30 Oeste 0.6 1009.4 0.2 73
2019-08-12 17:00:00 20.4 6 Oeste 25 Oeste 0 1009 -0.1 55
2019-08-12 16:00:00 20.3 5 Oeste 26 Noroeste 0 1009 -0.2 57
2019-08-12 15:00:00 19.7 8 Noroeste 26 Noroeste 0 1009.2 0 57
2019-08-12 14:00:00 19 9 Noroeste 21 Noroeste 0 1009.1 0.5 62
2019-08-12 13:00:00 18.5 2 Noroeste 14 Este 0 1009.2 0.8 72
2019-08-12 12:00:00 15.9 9 Este 28 Oeste 0.7 1009.2 1.6 80
2019-08-12 11:00:00 17.7 4 Sur 18 Oeste 0 1008.6 1.5 77
2019-08-12 10:00:00 15.3 2 Sur 9 Sudoeste 0 1008.4 1.7 95
2019-08-12 09:00:00 14.2 0 Calma 6 Este 0 1007.6 1.1 95
2019-08-12 08:00:00 13.2 0 Calma -- -- 0 1007.1 0.8 95
2019-08-12 07:00:00 12.8 0 Calma -- -- 0 1006.7 0.2 95
2019-08-12 06:00:00 12.8 0 Calma -- -- 0 1006.5 -0.2 95
2019-08-12 05:00:00 12.9 0 Calma -- -- 0 1006.3 -0.7 95
2019-08-12 04:00:00 13.7 0 Calma 6 Sudoeste 0 1006.5 -0.3 95
2019-08-12 03:00:00 14.6 0 Calma -- -- 0 1006.7 -0.5 95
2019-08-12 02:00:00 15.2 0 Calma 9 Nordeste 0 1007 0.2 95
2019-08-12 01:00:00 15.5 0 Calma -- -- 0 1006.8 0.3 94
2019-08-12 00:00:00 15.8 0 Calma -- -- 0 1007.2 1.3 94
2019-08-11 23:00:00 16 0 Calma -- -- 0.1 1006.8 1.5 93
2019-08-11 22:00:00 16.1 0 Calma -- -- 0.1 1006.5 1.5 92
2019-08-11 21:00:00 16.2 0 Calma 9 Este 0.9 1005.9 1.1 91
2019-08-11 20:00:00 16.7 0 Calma 7 Nordeste 1.1 1005.3 0.8 88
2019-08-11 19:00:00 17.5 3 Noroeste 19 Noroeste 0.5 1005 0.7 79
2019-08-11 18:00:00 18.6 6 Norte 16 Norte 0 1004.8 0.5 77
2019-08-11 17:00:00 18.7 9 Norte 21 Norte 0 1004.5 -0.3 76
2019-08-11 16:00:00 18.8 10 Norte 17 Noroeste 0 1004.3 -0.9 83
2019-08-11 15:00:00 18.3 6 Norte 13 Norte 0.1 1004.3 -0.5 90
2019-08-11 14:00:00 17.6 3 Nordeste 9 Nordeste 0.1 1004.8 0.4 93
2019-08-11 13:00:00 17.5 0 Calma 8 Sudeste 0 1005.2 1 95
2019-08-11 12:00:00 16.9 0 Calma 4 Nordeste 0.4 1004.8 0.4 95
2019-08-11 11:00:00 16.2 0 Calma 5 Este 0.3 1004.4 0.2 95
2019-08-11 10:00:00 15.8 2 Sudeste 5 Sudeste 0.7 1004.2 0.4 95
2019-08-11 09:00:00 15.7 0 Calma 12 Sudeste 0.2 1004.4 1.7 95
2019-08-11 08:00:00 15.7 6 Este 17 Noroeste 3.6 1004.2 1.1 95
2019-08-11 07:00:00 16.1 5 Noroeste 15 Sudoeste 5.3 1003.8 0.1 95
2019-08-11 06:00:00 16.8 6 Este 11 Este 1.8 1002.7 -1.5 95
2019-08-11 05:00:00 17 0 Calma 8 Norte 0.3 1003.1 -1.7 95
2019-08-11 04:00:00 16.9 0 Calma -- -- 0.1 1003.7 -2.5 94
2019-08-11 03:00:00 17 0 Calma -- -- 0 1004.2 -1.9 93
2019-08-11 02:00:00 17.3 0 Calma -- -- 0.1 1004.8 -2 92
2019-08-11 01:00:00 17.4 0 Calma -- -- 0.7 1006.2 -0.2 89
2019-08-11 00:00:00 17.7 0 Calma 12 Noroeste 0 1006.1 -0.2 85
2019-08-10 23:00:00 18.8 0 Calma 8 Nordeste 0 1006.8 1 77
2019-08-10 22:00:00 19.2 0 Calma -- -- 0 1006.4 0.7 74
2019-08-10 21:00:00 19.3 3 Norte 15 Norte 0 1006.3 0.5 72
2019-08-10 20:00:00 19.7 7 Norte 19 Norte 0 1005.8 -0.4 67
2019-08-10 19:00:00 20.6 9 Norte 21 Noroeste 0 1005.7 -0.7 62
2019-08-10 18:00:00 21.3 10 Norte 19 Norte 0 1005.8 -0.9 62
2019-08-10 17:00:00 21.8 10 Norte 23 Nordeste 0 1006.2 -0.5 60
2019-08-10 16:00:00 21.1 10 Norte 21 Norte 0 1006.4 -0.9 64
2019-08-10 15:00:00 21.6 8 Norte 17 Norte 0 1006.7 -0.6 65
2019-08-10 14:00:00 21.5 6 Nordeste 19 Norte 0 1006.7 -0.2 66
2019-08-10 13:00:00 19.9 6 Este 15 Nordeste 0.1 1007.3 0.7 74
2019-08-10 12:00:00 19.2 6 Noroeste 19 Oeste 0 1007.3 1.2 75
2019-08-10 11:00:00 19.7 0 Calma -- -- 0 1006.9 1.5 91
2019-08-10 10:00:00 18.4 0 Calma -- -- 0 1006.6 1.7 92
2019-08-10 09:00:00 18 0 Calma -- -- 0.4 1006.1 1.7 92
2019-08-10 08:00:00 17.8 0 Calma -- -- 0 1005.4 1.5 92
2019-08-10 07:00:00 17.4 0 Calma -- -- 0 1004.9 1.1 92
2019-08-10 06:00:00 17.1 0 Calma 12 Nordeste 0 1004.4 0.6 92
2019-08-10 05:00:00 16.8 0 Calma -- -- 0 1003.9 0.3 92
2019-08-10 04:00:00 16.8 0 Calma -- -- 0 1003.8 0.6 92
2019-08-10 03:00:00 16.8 0 Calma -- -- 0 1003.8 1.1 92
2019-08-10 02:00:00 16.8 0 Calma -- -- 0 1003.6 1.5 91
2019-08-10 01:00:00 17.4 0 Calma -- -- 0 1003.2 1.6 89
2019-08-10 00:00:00 18 0 Calma -- -- 0 1002.7 1.8 86
2019-08-09 23:00:00 19 0 Calma 7 Nordeste 0 1002.1 2.1 84
2019-08-09 22:00:00 20.6 4 Este 9 Nordeste 0 1001.6 3.9 81
2019-08-09 21:00:00 21.1 5 Norte 18 Norte 0 1000.9 3.9 79
2019-08-09 20:00:00 21.3 8 Norte 26 Nordeste 0 1000 3 78
2019-08-09 19:00:00 22.3 11 Norte 25 Norte 0 997.7 0.2 76
2019-08-09 18:00:00 23.3 6 Norte 14 Norte 0 997 -0.8 77
2019-08-09 17:00:00 22.7 6 Norte 17 Norte 0 997 -1.1 78
2019-08-09 16:00:00 23.6 5 Norte 13 Noroeste 0 997.5 -0.3 76
2019-08-09 15:00:00 23.7 3 Norte 22 Nordeste 0 997.8 0.9 77
2019-08-09 14:00:00 22.9 12 Norte 27 Noroeste 0 998.1 2.4 79
2019-08-09 13:00:00 22.5 12 Norte 33 Norte 0 997.8 2.7 80
2019-08-09 12:00:00 24 15 Norte 41 Norte 0 996.9 2.7 76
2019-08-09 11:00:00 30.3 6 Sudoeste 47 Oeste 0 995.7 1.7 48
2019-08-09 10:00:00 28.7 18 Sudoeste 44 Sudoeste 0 995.1 1.5 49
2019-08-09 09:00:00 27.3 10 Noroeste 36 Noroeste 0 994.2 0.6 53
2019-08-09 08:00:00 24.9 0 Calma 14 Noroeste 0 994 0.3 57
2019-08-09 07:00:00 24.2 3 Oeste 13 Noroeste 0 993.6 -0.2 59
2019-08-09 06:00:00 25.9 3 Sudeste 18 Este 0 993.6 -0.3 55
2019-08-09 05:00:00 24.8 4 Este 18 Nordeste 0 993.7 -0.2 59
2019-08-09 04:00:00 25.7 0 Calma 11 Oeste 0 993.8 0.1 56
2019-08-09 03:00:00 26.5 5 Sudeste 20 Sudoeste 0 993.9 0.1 54
2019-08-09 02:00:00 24.1 9 Sudoeste 24 Sudoeste 0 993.9 0.3 67
2019-08-09 01:00:00 23.5 7 Sudoeste 16 Sudoeste 0 993.7 0.5 74
2019-08-09 00:00:00 22.4 5 Sudoeste 11 Sudoeste 0 993.8 0.9 78
2019-08-08 23:00:00 23 0 Calma -- -- 0 993.6 0.5 74
2019-08-08 22:00:00 24.4 0 Calma 6 Sudeste 0 993.2 -0.2 67
2019-08-08 21:00:00 26.3 0 Calma 12 Norte 0 992.9 -1.2 55
2019-08-08 20:00:00 28.1 4 Norte 20 Norte 0 993.1 -1.7 49
2019-08-08 19:00:00 32.9 4 Oeste 31 Sudoeste 0 993.4 -1.8 40
2019-08-08 18:00:00 32.8 7 Sudoeste 27 Sur 0 994.1 -1.4 39
2019-08-08 17:00:00 32.6 10 Sur 37 Sudoeste 0 994.8 -0.9 39
2019-08-08 16:00:00 32.2 5 Sur 35 Sudoeste 0 995.2 -1 41
2019-08-08 15:00:00 31.6 12 Sudoeste 31 Sudoeste 0 995.5 -0.9 41
2019-08-08 14:00:00 31.4 5 Sudoeste 29 Sudoeste 0 995.7 -0.7 43
2019-08-08 13:00:00 30.2 6 Sudeste 32 Sudoeste 0 996.2 -0.1 44
2019-08-08 12:00:00 28.3 8 Sudoeste 35 Sudoeste 0 996.4 0.3 47
2019-08-08 11:00:00 26.9 7 Sur 37 Sudeste 0 996.4 0.5 51
2019-08-08 10:00:00 25.1 9 Sur 48 Sudoeste 0 996.3 -0.1 53
2019-08-08 09:00:00 24.7 8 Sur 41 Sudeste 0 996.1 -0.3 56
2019-08-08 08:00:00 23.3 11 Sur 32 Sudeste 0 995.9 -0.9 59
2019-08-08 07:00:00 22.1 10 Sudoeste 30 Sudoeste 0 996.4 -0.7 63
2019-08-08 06:00:00 19.8 4 Sudoeste 33 Sudoeste 0 996.4 -1 86
2019-08-08 05:00:00 19 4 Oeste 15 Oeste 0 996.8 -0.8 92
2019-08-08 04:00:00 19.3 0 Calma 11 Sudoeste 0 997.1 -0.6 93
2019-08-08 03:00:00 19.8 0 Calma 8 Sudoeste 0 997.4 -0.6 92
2019-08-08 02:00:00 20 0 Calma 0 Calma 0 997.6 -0.3 92
2019-08-08 01:00:00 20.3 0 Calma -- -- 0 997.7 0.1 90
2019-08-08 00:00:00 20.8 0 Calma 5 Este 0 998 1 89
2019-08-07 23:00:00 21.2 0 Calma 8 Este 0 997.9 1.2 87
2019-08-07 22:00:00 21.6 0 Calma 8 Nordeste 0 997.6 0.9 83
2019-08-07 21:00:00 22.1 4 Nordeste 14 Noroeste 0 997 0.1 79
2019-08-07 20:00:00 23 9 Norte 20 Norte 0 996.7 -0.4 74
2019-08-07 19:00:00 23.9 7 Norte 25 Nordeste 0 996.7 -1.1 70
2019-08-07 18:00:00 23.9 9 Norte 19 Norte 0 996.9 -1.3 68
2019-08-07 17:00:00 24.4 9 Norte 21 Norte 0 997.1 -1.6 66
2019-08-07 16:00:00 24.8 11 Norte 22 Noroeste 0 997.8 -1.3 66
2019-08-07 15:00:00 25 9 Norte 16 Noroeste 0 998.2 -1.3 64
2019-08-07 14:00:00 24.8 7 Norte 14 Noroeste 0 998.7 -0.7 64
2019-08-07 13:00:00 23.9 6 Norte 14 Norte 0 999.1 -0.2 66
2019-08-07 12:00:00 24.7 4 Este 11 Nordeste 0 999.5 0.8 67
2019-08-07 11:00:00 22.9 0 Calma -- -- 0 999.4 0.6 78
2019-08-07 10:00:00 20 0 Calma 8 Sudoeste 0 999.3 0.9 94
2019-08-07 09:00:00 18.6 0 Calma 5 Nordeste 0 998.7 1.1 95
2019-08-07 08:00:00 17.6 0 Calma -- -- 0 998.8 1.1 95
2019-08-07 07:00:00 17.6 0 Calma -- -- 0 998.4 0.9 95
2019-08-07 06:00:00 17.5 0 Calma 14 Este 0 997.6 -0.4 95
2019-08-07 05:00:00 17.4 2 Este 9 Sudeste 0 997.7 -1.6 95
2019-08-07 04:00:00 17.6 0 Calma -- -- 0 997.5 -2.3 94
2019-08-07 03:00:00 17.8 0 Calma 5 Sudeste 0 998 -2.4 94
2019-08-07 02:00:00 18.1 0 Calma 8 Sudoeste 5.6 999.3 -1.3 92
2019-08-07 01:00:00 18.7 0 Calma 10 Sur 6.2 999.8 -0.3 90
2019-08-07 00:00:00 19.4 3 Sudeste 13 Este 0.1 1000.4 0.7 84
2019-08-06 23:00:00 19.8 0 Calma 6 Este 0 1000.6 1.8 80
2019-08-06 22:00:00 20.5 2 Nordeste 14 Noroeste 0 1000.1 1.5 77
2019-08-06 21:00:00 20.8 4 Noroeste 13 Norte 0 999.7 1.6 77
2019-08-06 20:00:00 21.5 6 Norte 14 Norte 0 998.8 0.9 75
2019-08-06 19:00:00 21.8 8 Norte 18 Nordeste 0 998.6 0.4 73
2019-08-06 18:00:00 22.4 8 Norte 21 Norte 0 998.1 -0.4 71
2019-08-06 17:00:00 24.5 10 Norte 20 Noroeste 0 997.9 -0.5 67
2019-08-06 16:00:00 24 9 Norte 20 Noroeste 0 998.2 -0.8 68
2019-08-06 15:00:00 24.3 12 Norte 19 Norte 0 998.5 -1.3 67
2019-08-06 14:00:00 25.5 2 Nordeste 11 Noroeste 0 998.4 -1.4 63
2019-08-06 13:00:00 23.8 2 Sudeste 11 Este 0 999 -0.9 70
2019-08-06 12:00:00 21.4 3 Este 8 Este 0 999.8 -0.1 82
2019-08-06 11:00:00 19.6 0 Calma 6 Nordeste 0 999.8 -0.3 93
2019-08-06 10:00:00 18.6 0 Calma -- -- 0 999.9 -0.2 95
2019-08-06 09:00:00 17.5 0 Calma -- -- 0 999.9 -0.5 95
2019-08-06 08:00:00 17.1 0 Calma -- -- 0 1000.1 -0.7 95
2019-08-06 07:00:00 16.7 0 Calma -- -- 0 1000.1 -1 95
2019-08-06 06:00:00 16.6 0 Calma -- -- 0 1000.4 -0.9 95
2019-08-06 05:00:00 16.3 0 Calma -- -- 0 1000.8 -1 95
2019-08-06 04:00:00 16.3 0 Calma -- -- 0 1001.1 -0.9 94
2019-08-06 03:00:00 16.3 0 Calma -- -- 0 1001.3 -0.9 93
2019-08-06 02:00:00 16.8 0 Calma 4 Sudoeste 0 1001.8 -0.4 92
2019-08-06 01:00:00 17.3 0 Calma -- -- 0 1002 0.5 91
2019-08-06 00:00:00 17.6 0 Calma -- -- 0 1002.2 1 89
2019-08-05 23:00:00 18.5 0 Calma 6 Este 0 1002.2 1.1 86
2019-08-05 22:00:00 19.3 0 Calma 7 Noroeste 0 1001.5 0.6 82
2019-08-05 21:00:00 20.3 3 Noroeste 15 Noroeste 0 1001.2 -0.1 78
2019-08-05 20:00:00 21.2 4 Noroeste 17 Norte 0 1001.1 -0.5 75
2019-08-05 19:00:00 22.2 9 Noroeste 15 Noroeste 0 1000.9 -1.1 70
2019-08-05 18:00:00 22.2 5 Norte 16 Norte 0 1001.3 -0.5 72
2019-08-05 17:00:00 21.3 7 Norte 13 Noroeste 0 1001.6 0.1 75
2019-08-05 16:00:00 21.3 5 Norte 13 Norte 0 1002 -0.2 75
2019-08-05 15:00:00 21.2 5 Norte 12 Norte 0 1001.8 -1 75
2019-08-05 14:00:00 21.5 5 Norte 10 Norte 0 1001.5 -1.5 75
2019-08-05 13:00:00 21.5 0 Calma -- -- 0 1002.2 -1.1 79
2019-08-05 12:00:00 20 0 Calma -- -- 0 1002.8 -0.4 87
2019-08-05 11:00:00 18.3 0 Calma -- -- 0 1003 -0.3 95
2019-08-05 10:00:00 17.4 0 Calma -- -- 0 1003.3 0.2 95
2019-08-05 09:00:00 16.7 0 Calma -- -- 0 1003.2 0.4 95
2019-08-05 08:00:00 16 0 Calma -- -- 0 1003.3 0.1 95
2019-08-05 07:00:00 15.7 0 Calma -- -- 0 1003.1 0 94
2019-08-05 06:00:00 15.9 0 Calma -- -- 0 1002.8 -0.7 94
2019-08-05 05:00:00 16.3 0 Calma -- -- 0 1003.2 -0.7 93
2019-08-05 04:00:00 16.4 0 Calma -- -- 0 1003.1 -1 92
2019-08-05 03:00:00 17.1 0 Calma -- -- 0 1003.5 -0.6 91
2019-08-05 02:00:00 17.3 0 Calma -- -- 0 1003.9 -0.2 90
2019-08-05 01:00:00 17.9 0 Calma -- -- 0 1004.1 0.4 89
2019-08-05 00:00:00 18 0 Calma 7 Este 0 1004.1 1 87
2019-08-04 23:00:00 19.2 5 Este 13 Este 0 1004.1 1.5 86
2019-08-04 22:00:00 19.7 0 Calma 6 Noroeste 0 1003.7 1.6 85
2019-08-04 21:00:00 20 0 Calma 5 Este 0 1003.1 0.9 83
2019-08-04 20:00:00 20.1 0 Calma 6 Sudeste 0 1002.6 0.5 82
2019-08-04 19:00:00 20.1 4 Este 11 Este 0 1002.1 -0.1 82
2019-08-04 18:00:00 20.3 2 Oeste 13 Oeste 0 1002.2 0.5 80
2019-08-04 17:00:00 20.4 3 Norte 13 Norte 0 1002.1 0.4 80
2019-08-04 16:00:00 20.5 8 Norte 20 Norte 0 1002.2 0.1 79
2019-08-04 15:00:00 21.3 8 Norte 17 Norte 0 1001.7 -0.6 76
2019-08-04 14:00:00 21.8 7 Norte 12 Noroeste 0 1001.7 -0.8 74
2019-08-04 13:00:00 21.6 4 Norte 9 Norte 0 1002.1 -0.7 74
2019-08-04 12:00:00 20.8 0 Calma 5 Noroeste 0 1002.3 -0.3 82
2019-08-04 11:00:00 18.8 0 Calma -- -- 0 1002.5 0.1 94
2019-08-04 10:00:00 18 0 Calma -- -- 0 1002.8 0.8 95
2019-08-04 09:00:00 17.2 0 Calma -- -- 0 1002.6 0.5 95
2019-08-04 08:00:00 16.5 0 Calma -- -- 0 1002.4 0.4 95
2019-08-04 07:00:00 16 0 Calma -- -- 0 1002 -0.1 95
2019-08-04 06:00:00 15.9 0 Calma -- -- 0 1002.1 -0.2 94
2019-08-04 05:00:00 16.2 0 Calma -- -- 0 1002 0 94
2019-08-04 04:00:00 16.4 0 Calma -- -- 0 1002.1 -0.1 93
2019-08-04 03:00:00 16.9 0 Calma -- -- 0 1002.3 0.3 92
2019-08-04 02:00:00 17.2 0 Calma -- -- 0 1002 0 90
2019-08-04 01:00:00 17.5 0 Calma -- -- 0 1002.2 0.7 89
2019-08-04 00:00:00 18.2 0 Calma 4 Este 0 1002 1.5 86
2019-08-03 23:00:00 19.1 2 Este 8 Este 0 1002 2.1 80
2019-08-03 22:00:00 20.6 0 Calma 10 Norte 0 1001.5 2.1 73
2019-08-03 21:00:00 22 6 Norte 17 Norte 0 1000.5 0.9 66
2019-08-03 20:00:00 22.9 9 Norte 20 Norte 0 999.9 0.4 67
2019-08-03 19:00:00 23.1 12 Norte 25 Norte 0 999.4 0 69
2019-08-03 18:00:00 23.9 12 Norte 27 Norte 0 999.6 0.2 66
2019-08-03 17:00:00 24.9 13 Norte 26 Norte 0 999.5 -0.4 64
2019-08-03 16:00:00 24.9 13 Norte 26 Norte 0 999.4 -1.1 65
2019-08-03 15:00:00 25 13 Norte 21 Norte 0 999.4 -1.7 64
2019-08-03 14:00:00 25.8 6 Norte 12 Nordeste 0 999.9 -1.6 61
2019-08-03 13:00:00 25.2 3 Nordeste 10 Nordeste 0 1000.5 -1.5 62
2019-08-03 12:00:00 23.3 0 Calma 8 Nordeste 0 1001.1 -1.3 67
2019-08-03 11:00:00 21 0 Calma -- -- 0 1001.5 -1 80
2019-08-03 10:00:00 18 0 Calma -- -- 0 1002 -0.4 95
2019-08-03 09:00:00 15.8 0 Calma -- -- 0 1002.4 0.1 95
2019-08-03 08:00:00 14.7 0 Calma -- -- 0 1002.5 -0.2 95
2019-08-03 07:00:00 14.4 0 Calma -- -- 0 1002.4 -0.5 94
2019-08-03 06:00:00 14.8 0 Calma -- -- 0 1002.3 -1.1 94
2019-08-03 05:00:00 15.2 0 Calma -- -- 0 1002.7 -0.9 93
2019-08-03 04:00:00 15.8 0 Calma -- -- 0 1002.9 -1.1 92
2019-08-03 03:00:00 16.5 0 Calma -- -- 0 1003.4 -0.7 92
2019-08-03 02:00:00 16.5 0 Calma -- -- 0 1003.6 -0.5 92
2019-08-03 01:00:00 16.3 0 Calma -- -- 0 1004 0.3 91
2019-08-03 00:00:00 16.1 0 Calma 7 Nordeste 0 1004.1 0.5 89
2019-08-02 23:00:00 16.6 3 Nordeste 8 Nordeste 0 1004.1 0.7 85
2019-08-02 22:00:00 18.1 0 Calma 8 Nordeste 0 1003.7 0.4 78
2019-08-02 21:00:00 19.5 4 Noroeste 15 Noroeste 0 1003.6 0.2 72
2019-08-02 20:00:00 20.4 10 Noroeste 19 Norte 0 1003.4 -0.3 67
2019-08-02 19:00:00 21.5 8 Norte 22 Norte 0 1003.3 -0.7 62
2019-08-02 18:00:00 22.1 11 Norte 22 Norte 0 1003.4 -1 61
2019-08-02 17:00:00 22.8 10 Norte 21 Noroeste 0 1003.7 -0.8 62
2019-08-02 16:00:00 23.2 10 Norte 21 Norte 0 1004 -0.7 66
2019-08-02 15:00:00 22.6 8 Norte 18 Noroeste 0 1004.4 -0.6 70
2019-08-02 14:00:00 22 7 Norte 15 Noroeste 0 1004.5 -0.3 71
2019-08-02 13:00:00 21 8 Norte 13 Norte 0 1004.7 0 74
2019-08-02 12:00:00 19.7 0 Calma -- -- 0 1005 0.5 87
2019-08-02 11:00:00 18.4 0 Calma -- -- 0 1004.8 0.5 95
2019-08-02 10:00:00 17.8 0 Calma 5 Nordeste 0 1004.7 0.7 95
2019-08-02 09:00:00 17.5 0 Calma -- -- 0 1004.5 0.6 95
2019-08-02 08:00:00 17.3 0 Calma -- -- 0 1004.3 0.2 95
2019-08-02 07:00:00 17.3 0 Calma -- -- 0 1004 -0.2 95
2019-08-02 06:00:00 17.2 0 Calma -- -- 0.1 1003.9 -0.5 95
2019-08-02 05:00:00 17.3 0 Calma -- -- 0 1004.1 -0.6 95
2019-08-02 04:00:00 17.3 0 Calma -- -- 0 1004.2 -0.5 94
2019-08-02 03:00:00 17.2 0 Calma -- -- 0 1004.4 -0.4 94
2019-08-02 02:00:00 17.4 0 Calma -- -- 0 1004.7 0.2 94
2019-08-02 01:00:00 17.5 0 Calma -- -- 0 1004.7 0.8 93
2019-08-02 00:00:00 17.6 0 Calma -- -- 0 1004.8 1.3 93
2019-08-01 23:00:00 17.6 0 Calma -- -- 0 1004.5 1.4 92
2019-08-01 22:00:00 17.7 0 Calma -- -- 0 1003.9 1.2 92
2019-08-01 21:00:00 17.8 0 Calma -- -- 0.1 1003.5 1.4 92
2019-08-01 20:00:00 18.1 0 Calma 9 Noroeste 0 1003.1 1.6 90
2019-08-01 19:00:00 18.4 4 Norte 12 Norte 0 1002.7 1.6 87
2019-08-01 18:00:00 19.3 5 Oeste 15 Norte 0 1002.1 1.6 82
2019-08-01 17:00:00 19.5 5 Nordeste 18 Norte 0 1001.5 0.9 81
2019-08-01 16:00:00 20.5 8 Norte 18 Noroeste 0 1001.1 0.3 77
2019-08-01 15:00:00 22 10 Norte 20 Nordeste 0 1000.5 -0.5 70
2019-08-01 14:00:00 23.9 4 Oeste 10 Noroeste 0 1000.6 -0.4 64
2019-08-01 13:00:00 23.1 3 Sudoeste 12 Sudoeste 0 1000.8 -0.2 66
2019-08-01 12:00:00 21 6 Sudoeste 14 Sudoeste 0 1001 0.2 77
2019-08-01 11:00:00 19 6 Sudoeste 21 Sudoeste 0 1001 0.2 91
2019-08-01 10:00:00 17.6 0 Calma -- -- 0 1001 0.9 95
2019-08-01 09:00:00 16.3 3 Sudeste 7 Sudeste 0.1 1000.8 -1.2 94
2019-08-01 08:00:00 16.4 0 Calma 24 Sudoeste 1 1000.8 -0.9 93
2019-08-01 07:00:00 16.3 6 Nordeste 22 Nordeste 4.7 1000.1 -1.8 93
2019-08-01 06:00:00 16.8 6 Este 44 Sudoeste 7.2 1002 -0.5 90
2019-08-01 05:00:00 17.1 0 Calma 7 Oeste 0 1001.7 -1.3 89
2019-08-01 04:00:00 17.3 0 Calma 8 Este 0 1001.9 -1.7 87
2019-08-01 03:00:00 17.7 0 Calma -- -- 0 1002.5 -1.5 86
2019-08-01 02:00:00 17.7 0 Calma 4 Sudeste 0 1003 -1.1 84
2019-08-01 01:00:00 17.8 0 Calma 5 Este 0 1003.6 -0.5 83
2019-08-01 00:00:00 17.8 3 Este 6 Este 0 1004 0.4 80
2019-07-31 23:00:00 18.3 0 Calma 9 Norte 0 1004.1 0.7 75
2019-07-31 22:00:00 18.7 3 Norte 14 Norte 0 1004.1 0.6 72
2019-07-31 21:00:00 18.8 7 Norte 17 Noroeste 0 1003.6 -0.2 71
2019-07-31 20:00:00 19.3 9 Norte 20 Norte 0 1003.4 -0.6 68
2019-07-31 19:00:00 19.6 9 Norte 21 Norte 0 1003.5 -0.9 66
2019-07-31 18:00:00 19.9 11 Norte 23 Norte 0 1003.8 -1.1 64
2019-07-31 17:00:00 20.1 11 Norte 23 Norte 0 1004 -1.4 64
2019-07-31 16:00:00 19.8 11 Norte 22 Norte 0 1004.4 -1.4 62
2019-07-31 15:00:00 20 12 Norte 24 Norte 0 1004.9 -1.2 64
2019-07-31 14:00:00 19.6 11 Norte 26 Norte 0 1005.4 -1.1 65
2019-07-31 13:00:00 19.4 12 Norte 24 Norte 0 1005.8 -1 64
2019-07-31 12:00:00 19.3 11 Norte 20 Norte 0 1006.1 -1.2 67
2019-07-31 11:00:00 18.4 0 Calma 8 Este 0 1006.5 -0.9 73
2019-07-31 10:00:00 15.9 0 Calma -- -- 0 1006.8 -0.5 86
2019-07-31 09:00:00 13.2 0 Calma 6 Noroeste 0 1007.3 0.1 94
2019-07-31 08:00:00 11.7 0 Calma -- -- 0 1007.4 0 94
2019-07-31 07:00:00 11.4 2 Sur 8 Sudoeste 0 1007.3 -0.4 93
2019-07-31 06:00:00 11.4 0 Calma 5 Sudoeste 0 1007.2 -0.7 93
2019-07-31 05:00:00 11.9 2 Sudoeste 5 Sudoeste 0 1007.4 -0.6 92
2019-07-31 04:00:00 12.7 0 Calma 12 Sudoeste 0 1007.7 -0.4 91
2019-07-31 03:00:00 12.9 0 Calma 10 Sudoeste 0 1007.9 -0.5 90
2019-07-31 02:00:00 12.6 0 Calma -- -- 0 1008 -0.4 89
2019-07-31 01:00:00 13.4 0 Calma -- -- 0 1008.1 0.6 86
2019-07-31 00:00:00 14.5 0 Calma -- -- 0 1008.4 0.9 81
2019-07-30 23:00:00 15.9 0 Calma 6 Este 0 1008.4 1.3 75
2019-07-30 22:00:00 16.9 2 Este 11 Noroeste 0 1007.5 0.6 68
2019-07-30 21:00:00 18.1 4 Noroeste 16 Noroeste 0 1007.5 0.5 60
2019-07-30 20:00:00 18.9 8 Noroeste 18 Noroeste 0 1007.1 0.1 60
2019-07-30 19:00:00 19.8 5 Norte 20 Noroeste 0 1006.9 0.1 58
2019-07-30 18:00:00 20 12 Norte 25 Norte 0 1007 0.4 55
2019-07-30 17:00:00 20.8 11 Noroeste 22 Noroeste 0 1007 0 53
2019-07-30 16:00:00 20.8 11 Noroeste 22 Noroeste 0 1006.8 -0.2 56
2019-07-30 15:00:00 20.4 8 Norte 17 Nordeste 0 1006.6 -0.2 56
2019-07-30 14:00:00 19.9 9 Noroeste 23 Oeste 0 1007 0.4 56
2019-07-30 13:00:00 20.1 0 Calma 24 Oeste 0 1007 0.4 56
2019-07-30 12:00:00 20.4 5 Norte 23 Oeste 0 1006.8 0.8 57
2019-07-30 11:00:00 18.9 4 Oeste 30 Oeste 0 1006.6 1.1 59
2019-07-30 10:00:00 19.2 2 Oeste 17 Sur 0 1006.6 1.7 59
2019-07-30 09:00:00 18 2 Sudoeste 14 Sur 0 1006 1.2 73
2019-07-30 08:00:00 15.6 0 Calma 8 Sur 0 1005.5 1.1 90
2019-07-30 07:00:00 15.4 0 Calma 6 Noroeste 0 1004.9 0.6 90
2019-07-30 06:00:00 15.6 0 Calma -- -- 0 1004.8 0.7 91
2019-07-30 05:00:00 15.7 0 Calma -- -- 0 1004.4 0.3 91
2019-07-30 04:00:00 15.7 0 Calma -- -- 0 1004.3 0.5 91
2019-07-30 03:00:00 16.1 0 Calma 8 Sudoeste 0 1004.1 0.4 90
2019-07-30 02:00:00 15.9 0 Calma 7 Este 0 1004.1 0.8 90
2019-07-30 01:00:00 16.3 0 Calma 4 Este 0 1003.8 1.6 90
2019-07-30 00:00:00 16.7 0 Calma 9 Sudeste 0 1003.7 2.4 89
2019-07-29 23:00:00 16.7 3 Este 9 Este 0 1003.3 2.6 87
2019-07-29 22:00:00 17.5 7 Este 20 Norte 0 1002.2 1.7 78
2019-07-29 21:00:00 18.8 4 Noroeste 13 Noroeste 0 1001.3 1.2 69
2019-07-29 20:00:00 19.7 0 Calma 12 Nordeste 0 1000.7 1.1 68
2019-07-29 19:00:00 19.8 4 Nordeste 12 Nordeste 0 1000.5 1.3 69
2019-07-29 18:00:00 19.6 6 Este 14 Norte 0 1000.1 1.8 73
2019-07-29 17:00:00 19.7 9 Norte 19 Norte 0 999.6 2.2 72
2019-07-29 16:00:00 20.2 12 Norte 28 Nordeste 0 999.2 2.3 68
2019-07-29 15:00:00 21.8 11 Noroeste 23 Norte 0 998.3 1.8 63
2019-07-29 14:00:00 24.2 10 Norte 24 Noroeste 0 997.4 1.2 55
2019-07-29 13:00:00 24.3 13 Noroeste 27 Oeste 0 996.9 0.5 55
2019-07-29 12:00:00 25.1 4 Norte 10 Nordeste 0 996.5 0.5 50
2019-07-29 11:00:00 22.4 0 Calma -- -- 0 996.2 0.2 61
2019-07-29 10:00:00 18.6 0 Calma -- -- -- 996.4 0.7 78
2019-07-29 09:00:00 15.5 0 Calma 10 Sudoeste 0 996 0.3 94
2019-07-29 08:00:00 13.3 0 Calma 7 Sur 0 996 0.5 95
2019-07-29 07:00:00 12.5 0 Calma -- -- 0 995.7 -0.1 95
2019-07-29 06:00:00 12.9 0 Calma 14 Sudoeste 0 995.7 -0.3 95
2019-07-29 05:00:00 13.2 0 Calma 10 Sur 0 995.5 -0.9 94
2019-07-29 04:00:00 13.3 0 Calma 7 Sudoeste 0 995.8 -0.7 93
2019-07-29 03:00:00 13.4 0 Calma -- -- 0 996 -1.2 92
2019-07-29 02:00:00 13.8 0 Calma -- -- 0 996.4 -1.1 92
2019-07-29 01:00:00 14.3 0 Calma -- -- 0 996.5 -0.8 90
2019-07-29 00:00:00 15.2 0 Calma -- -- 0 997.2 -0.2 87
2019-07-28 23:00:00 16.1 0 Calma 7 Este 0 997.5 -0.1 84
2019-07-28 22:00:00 17.6 0 Calma 7 Noroeste 0 997.3 -0.2 77
2019-07-28 21:00:00 19.1 2 Norte 15 Noroeste 0 997.4 -0.5 70
2019-07-28 20:00:00 20.2 6 Noroeste 21 Noroeste 0 997.6 -0.8 66
2019-07-28 19:00:00 20.6 12 Noroeste 22 Norte 0 997.5 -1.2 64
2019-07-28 18:00:00 21.6 9 Norte 20 Norte 0 997.9 -1.4 61
2019-07-28 17:00:00 21.9 10 Norte 23 Noroeste 0 998.4 -1.5 59
2019-07-28 16:00:00 21.8 10 Norte 19 Norte 0.1 998.7 -1.5 56
2019-07-28 15:00:00 21.3 7 Norte 13 Nordeste 0 999.3 -1.2 56
2019-07-28 14:00:00 21.1 3 Noroeste 11 Noroeste 0 999.9 -0.1 60
2019-07-28 13:00:00 19.4 3 Nordeste 12 Norte 0 1000.2 -0.1 71
2019-07-28 12:00:00 18.1 6 Noroeste 13 Noroeste 0 1000.5 0.4 75
2019-07-28 11:00:00 18.9 4 Nordeste 8 Nordeste 0 1000 0.1 85
2019-07-28 10:00:00 16.7 0 Calma -- -- 0 1000.3 0.5 96
2019-07-28 09:00:00 15.8 0 Calma -- -- 0 1000.1 0.6 96
2019-07-28 08:00:00 14.7 0 Calma -- -- 0 999.9 0.1 96
2019-07-28 07:00:00 14.5 0 Calma -- -- 0.4 999.8 0 96
2019-07-28 06:00:00 14.4 0 Calma -- -- 0.7 999.5 -0.5 96
2019-07-28 05:00:00 14.5 0 Calma 17 Sur 0 999.8 0 96
2019-07-28 04:00:00 14.4 0 Calma -- -- 0.1 999.8 -0.2 95
2019-07-28 03:00:00 14.5 0 Calma 11 Sudoeste 0.3 1000 -0.1 95
2019-07-28 02:00:00 14.3 0 Calma -- -- 0 999.8 -0.1 95
2019-07-28 01:00:00 14.2 0 Calma -- -- 0 1000 0.5 94
2019-07-28 00:00:00 14.7 0 Calma -- -- 0.1 1000.1 1.1 94
2019-07-27 23:00:00 14.8 0 Calma -- -- 0 999.9 1.5 92
2019-07-26 12:00:00 18.5 0 Calma 9 Nordeste 0 1000.7 1.5 94
2019-07-26 11:00:00 18.3 5 Norte 18 Noroeste 0 1000.6 0.4 95
2019-07-26 10:00:00 18.5 6 Noroeste 22 Norte 0 1000.5 0.5 95
2019-07-26 09:00:00 19 6 Nordeste 24 Sudoeste 1.5 999.2 -1.4 95
2019-07-26 08:00:00 19 3 Sur 7 Sudoeste 0.9 1000.2 -0.1 95
2019-07-26 07:00:00 18.8 0 Calma -- -- 1.2 1000 -1.2 95
2019-07-26 06:00:00 18.9 0 Calma 6 Noroeste 0.7 1000.6 -0.5 95
2019-07-26 05:00:00 18.9 0 Calma 15 Norte 2.7 1000.3 -0.9 94
2019-07-26 04:00:00 19.3 0 Calma 12 Sudoeste 0.4 1001.2 0.1 94
2019-07-26 03:00:00 19.4 0 Calma -- -- 0 1001.1 -0.1 93
2019-07-26 02:00:00 19.4 0 Calma 5 Sur 0.8 1001.2 0.2 92
2019-07-26 01:00:00 20 0 Calma -- -- 0.1 1001.1 0.2 92
2019-07-26 00:00:00 20.4 0 Calma 9 Oeste 0 1001.2 2 92
2019-07-25 23:00:00 20.7 2 Noroeste 20 Noroeste 0 1001 1.8 92
2019-07-25 22:00:00 20.9 3 Sudoeste 14 Noroeste 0 1000.9 1.4 93
2019-07-25 21:00:00 21.1 0 Calma 17 Norte 0.1 999.2 0.9 93
2019-07-25 20:00:00 21.1 8 Norte 23 Noroeste 5.4 999.2 1.5 93
2019-07-25 19:00:00 21.5 4 Sudeste 13 Norte 0 999.5 2.6 89
2019-07-25 18:00:00 22.2 6 Norte 21 Nordeste 0 998.3 1.9 85
2019-07-25 17:00:00 23.2 12 Norte 27 Noroeste 0 997.7 0.9 77
2019-07-25 16:00:00 25.5 14 Norte 29 Norte 0 996.9 0.2 71
2019-07-25 15:00:00 26.5 15 Norte 27 Norte 0 996.4 -0.4 69
2019-07-25 14:00:00 26.3 13 Norte 29 Norte 0 996.8 0 70
2019-07-25 13:00:00 26.4 12 Norte 23 Norte 0 996.7 0 69
2019-07-25 12:00:00 26.3 12 Norte 23 Nordeste 0 996.8 0.4 68
2019-07-25 11:00:00 26.3 10 Norte 16 Norte 0 996.8 0.1 68
2019-07-25 10:00:00 24.1 7 Norte 14 Norte 0 996.7 0.2 73
2019-07-25 09:00:00 22.1 0 Calma 8 Este 0 996.4 0 87
2019-07-25 08:00:00 19.2 0 Calma 8 Noroeste 0 996.7 0.3 92
2019-07-25 07:00:00 18.9 0 Calma -- -- 0 996.5 0.2 91
2019-07-25 06:00:00 19.6 0 Calma 13 Oeste 0 996.4 0.2 89
2019-07-25 05:00:00 20.2 2 Sur 13 Oeste 0 996.4 0.5 85
2019-07-25 04:00:00 21.5 7 Sudoeste 21 Sudoeste 0 996.3 0.5 81
2019-07-25 03:00:00 21.6 0 Calma 14 Oeste 0 996.2 -0.1 76
2019-07-25 02:00:00 22.5 4 Oeste 28 Sudoeste 0 995.9 -0.8 70
2019-07-25 01:00:00 22.8 7 Sudoeste 22 Sudoeste 0 995.8 -0.6 70
2019-07-25 00:00:00 22.6 0 Calma 7 Oeste 0 996.3 -0.3 70
2019-07-24 23:00:00 23.6 0 Calma 5 Sudoeste 0 996.7 0.3 68
2019-07-24 22:00:00 24.9 0 Calma 8 Oeste 0 996.4 -0.9 67
2019-07-24 21:00:00 26.4 3 Sudoeste 10 Norte 0 996.6 0.4 64
2019-07-24 20:00:00 27.6 2 Noroeste 18 Norte 0 996.4 -0.5 60
2019-07-24 19:00:00 28.5 5 Sudoeste 21 Norte 0 997.3 -0.1 62
2019-07-24 18:00:00 29.4 11 Norte 23 Norte 0 996.2 -1.9 61
2019-07-24 17:00:00 29.2 13 Norte 26 Norte 0 996.9 -1.9 61
2019-07-24 16:00:00 29.3 12 Norte 24 Norte 0 997.4 -2.2 61
2019-07-24 15:00:00 30 9 Norte 17 Norte 0 998.1 -2.3 58
2019-07-24 14:00:00 29.6 8 Norte 15 Norte 0 998.8 -2.1 58
2019-07-24 13:00:00 28.2 8 Norte 15 Noroeste 0 999.6 -1.8 60
2019-07-24 12:00:00 28.3 3 Nordeste 9 Nordeste 0 1000.4 -1.5 57
2019-07-24 11:00:00 26.4 3 Nordeste 9 Este 0 1000.9 -0.8 65
2019-07-24 10:00:00 23.2 0 Calma 12 Sudoeste 0.1 1001.4 -0.4 76
2019-07-24 09:00:00 20.6 7 Sudoeste 12 Sudoeste 0 1001.9 0.5 87
2019-07-24 08:00:00 19.2 5 Sudoeste 13 Sudoeste 0 1001.7 1.4 93
2019-07-24 07:00:00 18.7 0 Calma -- -- 0 1001.8 0.6 93
2019-07-24 06:00:00 18.2 3 Este 8 Este 0 1001.4 -0.4 93
2019-07-24 05:00:00 18.2 0 Calma 5 Nordeste 0 1000.3 -1.9 92
2019-07-24 04:00:00 19.2 0 Calma 5 Nordeste 0 1001.2 -1.7 90
2019-07-24 03:00:00 20.1 2 Este 6 Este 0 1001.8 -2.2 88
2019-07-24 02:00:00 21.4 0 Calma 10 Sudoeste 0 1002.2 -0.4 86
2019-07-24 01:00:00 21.6 7 Sudoeste 26 Sudoeste 0 1002.9 0 86
2019-07-24 00:00:00 21.6 13 Sudoeste 28 Sudoeste 0 1004 2.7 86
2019-07-23 23:00:00 21.4 5 Este 21 Sudoeste 0 1002.6 1.6 82
2019-07-23 22:00:00 22.1 10 Sudoeste 33 Sudoeste 0 1002.9 4.6 80
2019-07-23 21:00:00 21.5 2 Sudoeste 19 Sudoeste 0.1 1001.3 4.1 80
2019-07-23 20:00:00 23.2 4 Sudeste 60 Sudoeste 0.8 1001 3.6 67
2019-07-23 19:00:00 30.9 7 Nordeste 29 Nordeste 0 998.3 -0.2 38
2019-07-23 18:00:00 34.9 11 Norte 23 Noroeste 0 997.2 -1.3 30
2019-07-23 17:00:00 39.7 0 Calma 22 Este 0 997.4 -1.8 26
2019-07-23 16:00:00 38.2 8 Sudoeste 19 Sudoeste 0 998.5 -1.3 26
2019-07-23 15:00:00 37.5 7 Este 30 Este 0 998.5 -1.8 28
2019-07-23 14:00:00 36.3 9 Este 25 Sudoeste 0 999.2 -1.8 30
2019-07-23 13:00:00 32.9 12 Sudoeste 35 Sudoeste 0 999.8 -1.4 31
2019-07-23 12:00:00 32.7 7 Sudoeste 41 Sudoeste 0 1000.3 -0.1 32
2019-07-23 11:00:00 31.8 14 Sudoeste 40 Sudoeste 0 1001 0.7 32
2019-07-23 10:00:00 27.1 13 Sudoeste 27 Sudoeste 0 1001.2 0.7 48
2019-07-23 09:00:00 23.7 4 Sudoeste 32 Sudoeste 0 1000.4 -0.1 63
2019-07-23 08:00:00 20.8 12 Sudoeste 30 Sudoeste 0 1000.3 -1.4 82
2019-07-23 07:00:00 20 10 Sudoeste 27 Sudoeste 0 1000.5 -2.2 93
2019-07-23 06:00:00 19.5 0 Calma 19 Noroeste 0 1000.5 -2.2 94
2019-07-23 05:00:00 19.7 3 Sur 16 Sudeste 0 1001.7 -1.5 94
2019-07-23 04:00:00 19.7 0 Calma 5 Sudoeste 0 1002.7 -1 92
2019-07-23 03:00:00 20.3 0 Calma 7 Este 0 1002.7 -1 91
2019-07-23 02:00:00 20.9 0 Calma 13 Noroeste 0 1003.2 0.5 89
2019-07-23 01:00:00 21.9 4 Oeste 22 Sudoeste 0 1003.7 1.1 87
2019-07-23 00:00:00 21.4 3 Oeste 17 Oeste 0 1003.7 1.4 87
2019-07-22 23:00:00 22.2 0 Calma -- -- 0 1002.7 0.6 83
2019-07-22 22:00:00 23.2 0 Calma 9 Nordeste 0 1002.6 0.4 77
2019-07-22 21:00:00 24.3 3 Nordeste 16 Nordeste 0 1002.3 -0.2 74
2019-07-22 20:00:00 25 9 Norte 19 Norte 0 1002.1 -1.2 71
2019-07-22 19:00:00 26.4 12 Norte 22 Norte 0 1002.2 -1.4 67
2019-07-22 18:00:00 28.2 10 Norte 21 Norte 0 1002.5 -1.6 61
2019-07-22 17:00:00 27.7 10 Norte 26 Norte 0 1003.3 -1.5 62
2019-07-22 16:00:00 27.1 14 Norte 25 Norte 0 1003.6 -2.2 61
2019-07-22 15:00:00 27.3 14 Norte 22 Norte 0 1004.1 -2 59
2019-07-22 14:00:00 28.6 8 Norte 14 Nordeste 0 1004.8 -2 55
2019-07-22 13:00:00 27.9 3 Nordeste 12 Norte 0 1005.8 -1.7 57
2019-07-22 12:00:00 25.8 5 Noroeste 12 Norte 0 1006.1 -1.6 62
2019-07-22 11:00:00 23.5 0 Calma 7 Este 0 1006.8 -1.1 68
2019-07-22 10:00:00 20.2 0 Calma 8 Sudoeste 0 1007.5 -0.6 85
2019-07-22 09:00:00 19.2 0 Calma 5 Sudoeste 0 1007.7 -0.6 91
2019-07-22 08:00:00 17.8 0 Calma -- -- 0 1007.9 -0.5 92
2019-07-22 07:00:00 17.7 0 Calma -- -- 0 1008.1 -0.5 90
2019-07-22 06:00:00 18.6 0 Calma -- -- 0 1008.3 -0.8 89
2019-07-22 05:00:00 19.2 0 Calma -- -- 0 1008.4 -1.1 87
2019-07-22 04:00:00 19.5 0 Calma -- -- 0 1008.6 -1.3 87
2019-07-22 03:00:00 19.7 0 Calma -- -- 0 1009.1 -0.5 86
2019-07-22 02:00:00 19.9 0 Calma 5 Este 0 1009.5 0 85
2019-07-22 01:00:00 20.2 2 Este 6 Este 0 1009.9 0.6 83
2019-07-22 00:00:00 20.2 0 Calma 5 Noroeste 0 1009.6 0.8 83
2019-07-21 23:00:00 20.6 4 Nordeste 7 Este 0 1009.5 1.6 80
2019-07-21 22:00:00 20.8 2 Norte 10 Nordeste 0 1009.3 1.7 78
2019-07-21 21:00:00 21 6 Nordeste 15 Nordeste 0 1008.8 1.6 77
2019-07-21 20:00:00 21.5 7 Norte 16 Norte 0 1007.9 0.8 76
2019-07-21 19:00:00 21.9 6 Norte 15 Nordeste 0 1007.6 0.4 76
2019-07-21 18:00:00 22.2 8 Norte 22 Norte 0 1007.2 -0.6 75
2019-07-21 17:00:00 23.3 9 Norte 16 Nordeste 0 1007.1 -1.3 72
2019-07-21 16:00:00 23 7 Norte 13 Nordeste 0 1007.2 -0.8 74
2019-07-21 15:00:00 21.5 5 Norte 15 Noroeste 0 1007.8 0 79
2019-07-21 14:00:00 20.9 10 Norte 20 Norte 0 1008.4 1 81
2019-07-21 13:00:00 21.6 13 Norte 21 Noroeste 0 1008 0.7 77
2019-07-21 12:00:00 21.7 7 Norte 17 Noroeste 0 1007.8 0.6 77
2019-07-21 11:00:00 21.6 10 Norte 18 Norte 0 1007.4 0.4 76
2019-07-21 10:00:00 21.4 6 Norte 11 Norte 0 1007.3 0.3 80
2019-07-21 09:00:00 20.4 0 Calma -- -- 0 1007.2 0.4 90
2019-07-21 08:00:00 18.8 0 Calma -- -- 0 1007 0.2 92
2019-07-21 07:00:00 18.7 0 Calma -- -- 0 1007 -0.2 91
2019-07-21 06:00:00 18.9 0 Calma -- -- 0 1006.8 -0.2 90
2019-07-21 05:00:00 19.1 0 Calma -- -- 0 1006.8 -0.7 90
2019-07-21 04:00:00 19.2 0 Calma -- -- 0 1007.2 -0.3 90
2019-07-21 03:00:00 19.2 0 Calma -- -- 0 1007 -0.1 90
2019-07-21 02:00:00 19.4 0 Calma -- -- 0 1007.5 0.5 89
2019-07-21 01:00:00 19.6 0 Calma -- -- 0 1007.5 1.4 89
2019-07-21 00:00:00 19.6 0 Calma 3 Sudeste 0 1007.1 1.7 88
2019-07-20 23:00:00 19.9 0 Calma 5 Sudeste 0 1007 2.1 86
2019-07-20 22:00:00 20.3 2 Oeste 10 Norte 0 1006.1 1.6 81
2019-07-20 21:00:00 20.8 5 Nordeste 14 Nordeste 0 1005.4 1 77
2019-07-20 20:00:00 21.1 6 Norte 15 Norte 0 1004.9 0.8 75
2019-07-20 19:00:00 21.6 7 Norte 13 Noroeste 0 1004.5 0.6 72
2019-07-20 18:00:00 21.7 5 Norte 14 Norte 0 1004.4 0.9 73
2019-07-20 17:00:00 21.3 6 Nordeste 16 Noroeste 0 1004.1 0.9 76
2019-07-20 16:00:00 21.6 10 Norte 19 Norte 0 1003.9 1.2 73
2019-07-20 15:00:00 22.8 11 Norte 22 Noroeste 0 1003.5 0.7 68
2019-07-20 14:00:00 22.5 8 Norte 19 Norte 0 1003.2 0.6 68
2019-07-20 13:00:00 23.1 8 Norte 13 Norte 0 1002.7 0.2 65
2019-07-20 12:00:00 23.1 3 Nordeste 12 Sudoeste 0 1002.8 0.6 66
2019-07-20 11:00:00 21.6 5 Sur 14 Sudoeste 0 1002.6 0.8 71
2019-07-20 10:00:00 20.3 0 Calma 9 Sudoeste 0 1002.5 1.4 83
2019-07-20 09:00:00 19.2 0 Calma -- -- 0 1002.2 1.7 89
2019-07-20 08:00:00 18 0 Calma -- -- 0 1001.8 1.7 90
2019-07-20 07:00:00 17.8 0 Calma -- -- 0 1001.1 1 89
2019-07-20 06:00:00 18.8 0 Calma 10 Sudoeste 0 1000.5 0.4 87
2019-07-20 05:00:00 19.2 0 Calma 9 Oeste 0 1000.1 0 85
2019-07-20 04:00:00 20.2 3 Sudoeste 12 Sur 0 1000.1 -0.1 83
2019-07-20 03:00:00 20.3 6 Sur 12 Sudoeste 0 1000.1 0.1 84
2019-07-20 02:00:00 20.6 0 Calma -- -- 0 1000.1 0.3 85
2019-07-20 01:00:00 20.5 0 Calma -- -- 0 1000.2 1.2 85
2019-07-20 00:00:00 20.6 0 Calma -- -- 0 1000 1.7 85
2019-07-19 23:00:00 20.4 0 Calma 9 Norte 0 999.8 2.2 84
2019-07-19 22:00:00 21 4 Nordeste 15 Norte 0 999 1.4 80
2019-07-19 21:00:00 21.8 9 Norte 17 Norte 0 998.3 0.2 74
2019-07-19 20:00:00 23.2 9 Norte 20 Norte 0 997.6 -0.7 66
2019-07-19 19:00:00 24.8 11 Norte 25 Noroeste 0 997.6 -1.5 60
2019-07-19 18:00:00 25 13 Norte 25 Nordeste 0 998.1 -1.5 58
2019-07-19 17:00:00 25.1 12 Norte 26 Norte 0 998.3 -1.8 58
2019-07-19 16:00:00 24.9 13 Norte 28 Noroeste 0 999.1 -1.6 58
2019-07-19 15:00:00 24.8 14 Norte 23 Norte 0 999.6 -2.1 55
2019-07-19 14:00:00 24.9 12 Norte 22 Norte 0 1000.1 -2.5 55
2019-07-19 13:00:00 25.2 8 Norte 15 Norte 0 1000.7 -2.8 50
2019-07-19 12:00:00 24 0 Calma 10 Noroeste 0 1001.7 -2.1 53
2019-07-19 11:00:00 21.3 0 Calma 8 Sudoeste 0 1002.6 -1.2 67
2019-07-19 10:00:00 17.1 0 Calma 8 Sudoeste 0 1003.5 -0.6 91
2019-07-19 09:00:00 14.2 0 Calma -- -- 0 1003.8 -0.6 95
2019-07-19 08:00:00 13 0 Calma 0 Calma 0 1003.8 -0.9 95
2019-07-19 07:00:00 12.3 0 Calma -- -- 0 1004.1 -0.8 95
2019-07-19 06:00:00 12.3 0 Calma -- -- 0 1004.4 -0.8 94
2019-07-19 05:00:00 12.7 0 Calma -- -- 0 1004.7 -0.7 94
2019-07-19 04:00:00 13.1 0 Calma -- -- 0 1004.9 -0.5 93
2019-07-19 03:00:00 13.7 0 Calma 7 Oeste 0 1005.2 -0.1 92
2019-07-19 02:00:00 14.2 0 Calma 5 Sudoeste 0 1005.4 0 91
2019-07-19 01:00:00 14.8 0 Calma 4 Sudoeste 0 1005.4 0.4 89
2019-07-19 00:00:00 15.6 0 Calma -- -- 0 1005.3 0.8 85
2019-07-18 23:00:00 16.7 0 Calma -- -- 0 1005.4 1.2 80
2019-07-18 22:00:00 18.2 0 Calma 15 Noroeste 0 1005 1 73
2019-07-18 21:00:00 19.3 8 Norte 16 Norte 0 1004.5 0.3 69
2019-07-18 20:00:00 20.1 9 Norte 18 Norte 0 1004.2 -0.4 65
2019-07-18 19:00:00 21 11 Norte 20 Norte 0 1004 -0.6 62
2019-07-18 18:00:00 21.6 12 Norte 21 Norte 0 1004.2 -0.6 60
2019-07-18 17:00:00 21.6 10 Norte 23 Norte 0 1004.6 -0.5 61
2019-07-18 16:00:00 22.6 12 Norte 21 Norte 0 1004.6 -0.2 58
2019-07-18 15:00:00 21.9 10 Norte 22 Norte 0 1004.8 -0.2 61
2019-07-18 14:00:00 21.8 9 Norte 19 Nordeste 0 1005.1 0.3 63
2019-07-18 13:00:00 22.6 7 Nordeste 18 Nordeste 0 1004.8 -0.2 62
2019-07-18 12:00:00 21.1 5 Norte 13 Norte 0 1005 -0.2 61
2019-07-18 11:00:00 20.6 6 Norte 11 Noroeste 0 1004.8 -0.2 66
2019-07-18 10:00:00 19.8 4 Nordeste 10 Nordeste 0 1005 0.2 80
2019-07-18 09:00:00 17.3 0 Calma -- -- 0 1005.2 0.6 95
2019-07-18 08:00:00 15.8 0 Calma -- -- 0 1005 0.1 95
2019-07-18 07:00:00 15.3 0 Calma 3 Sudoeste 0 1004.8 0.1 95
2019-07-18 06:00:00 15.7 0 Calma -- -- 0 1004.6 -0.5 95
2019-07-18 05:00:00 16.1 0 Calma -- -- 0 1004.9 -0.7 95
2019-07-18 04:00:00 16.1 0 Calma -- -- 0 1004.7 -0.7 95
2019-07-18 03:00:00 16 0 Calma -- -- 0 1005.1 -0.3 95
2019-07-18 02:00:00 16.3 0 Calma -- -- 0 1005.6 0.3 94
2019-07-18 01:00:00 16.5 0 Calma -- -- 0 1005.4 0.7 94
2019-07-18 00:00:00 17.2 0 Calma -- -- 0 1005.4 1.1 93